メインページ
METAR-TAF:

METAR-TAF

空港 :

ジュリウス・ニエレレ国際空港

ダルエスサラーム, タンザニア

緯度: 06-52S, 経度: 039-12E, 海抜: 55m

現時点の気象観測

当レポートは1時間23分前の11:00(UTC)に作成
南東の風 14kt
気温 33°C
湿度 63%
気圧 1013 hPa
視程10km以上
高度2600ftの雲は散在している

METAR: HTDA 211100Z 13014KT 9999 SCT026 33/25 Q1013 NOSIG

時間: 15:23 (12:23 UTC)

予報

当レポートは1時間23分前の11:00(UTC)に作成
予報は20日の 12時(UTC)から 22日の 18時(UTC)まで有効
南東の風 10kt
視程10km以上
高度2400ftの雲は散在している

TAF: HTDA 211100Z 2012/2218 13010KT 9999 SCT024

4,000以上の空港の気象観測と天気予報(METAR報とTAF報)

利用可能な観測所は地図上に黄色い丸と赤い丸で示す。

丸の上にカーソルを重ねると観測所名を参照できる。

次にクリックすると気象観測と天気予報を参照できる。

マップの切り替え:黒色「×」印の緑ボタンをクリックして拡大、「-」印の緑ボタンをクリックして縮小、緑色の三角印をクリックして隣りの地図に切り替え


METAR-TAF: